createdAt,value
2023-01-25T06:18:21.780Z,1027.77
2023-01-25T06:28:21.803Z,1027.70
2023-01-25T06:38:21.777Z,1027.76
2023-01-25T06:48:21.791Z,1027.64
2023-01-25T06:58:22.011Z,1027.68
2023-01-25T07:08:21.758Z,1027.58
2023-01-25T07:18:22.041Z,1027.54
2023-01-25T07:28:21.717Z,1027.55
2023-01-25T07:38:21.815Z,1027.61
2023-01-25T07:48:21.920Z,1027.44
2023-01-25T07:58:22.088Z,1027.39
2023-01-25T08:08:21.907Z,1027.31
2023-01-25T08:18:21.705Z,1027.14
2023-01-25T08:28:21.980Z,1027.15
2023-01-25T08:38:21.940Z,1026.89
2023-01-25T08:48:22.121Z,1026.87
2023-01-25T08:58:22.295Z,1026.72
2023-01-25T09:08:22.241Z,1026.64
2023-01-25T09:18:22.302Z,1026.59
2023-01-25T09:28:22.484Z,1026.45
2023-01-25T09:38:22.335Z,1026.35
2023-01-25T09:48:22.270Z,1026.17
2023-01-25T09:58:22.251Z,1025.88
2023-01-25T10:08:22.110Z,1025.79
2023-01-25T10:18:22.404Z,1025.73
2023-01-25T10:28:22.354Z,1025.54
2023-01-25T10:38:22.321Z,1025.15
2023-01-25T10:48:22.421Z,1025.08
2023-01-25T10:58:22.286Z,1024.95
2023-01-25T11:08:22.310Z,1024.71
2023-01-25T11:18:22.359Z,1024.68
2023-01-25T11:28:22.540Z,1024.49
2023-01-25T11:38:22.393Z,1024.21
2023-01-25T11:48:22.446Z,1024.00
2023-01-25T11:58:22.313Z,1023.70
2023-01-25T12:08:22.310Z,1023.42
2023-01-25T12:18:22.225Z,1023.14
2023-01-25T12:28:22.302Z,1022.98
2023-01-25T12:38:22.458Z,1022.83
2023-01-25T12:48:22.334Z,1022.50
2023-01-25T12:58:32.828Z,1022.26
2023-01-25T13:08:31.004Z,1022.12
2023-01-25T13:18:22.422Z,1021.77
2023-01-25T13:28:22.337Z,1021.69
2023-01-25T13:38:22.242Z,1021.56
2023-01-25T13:48:22.407Z,1021.45
2023-01-25T13:58:22.242Z,1021.48
2023-01-25T14:08:22.344Z,1021.37
2023-01-25T14:18:22.391Z,1021.28
2023-01-25T14:28:22.361Z,1021.09
2023-01-25T14:38:22.425Z,1021.02
2023-01-25T14:48:22.459Z,1021.00
2023-01-25T14:58:22.357Z,1020.99
2023-01-25T15:08:22.297Z,1020.95
2023-01-25T15:18:23.404Z,1020.77
2023-01-25T15:28:22.435Z,1020.72
2023-01-25T15:38:22.393Z,1020.52
2023-01-25T15:48:22.439Z,1020.32
2023-01-25T15:58:22.535Z,1020.36
2023-01-25T16:08:22.489Z,1020.27
2023-01-25T16:18:22.344Z,1020.10
2023-01-25T16:28:22.738Z,1019.97
2023-01-25T16:38:22.478Z,1020.01
2023-01-25T16:48:22.551Z,1019.79
2023-01-25T16:58:22.505Z,1019.64
2023-01-25T17:08:22.545Z,1019.52
2023-01-25T17:18:22.535Z,1019.62
2023-01-25T17:28:22.604Z,1019.54
2023-01-25T17:38:22.631Z,1019.20
2023-01-25T17:48:22.622Z,1019.16
2023-01-25T17:58:22.585Z,1019.05
2023-01-25T18:08:22.583Z,1018.96
2023-01-25T18:18:22.622Z,1018.99
2023-01-25T18:28:22.784Z,1018.89
2023-01-25T18:38:22.637Z,1018.87
2023-01-25T18:48:22.694Z,1018.68
2023-01-25T18:58:22.648Z,1018.46
2023-01-25T19:08:22.721Z,1018.39
2023-01-25T19:18:22.911Z,1018.24
